Time;durP1;ratioP1;P1;durP2;ratioP2;P2;SDS_P1;SDS_P2;PMS_P1;PMS_P2;Temp;Humidity;BMP_temperature;BMP_pressure;BME280_temperature;BME280_humidity;BME280_pressure;Samples;Min_cycle;Max_cycle;Signal;HPM_P1;HPM_P2
2023/08/19 00:01:35;;;;;;;15.43;9.88;;;589.30;2432.00;;;;;;4957401;28;20027;-83
2023/08/19 00:04:00;;;;;;;11.65;9.32;;;589.20;2432.00;;;;;;4957541;29;20511;-82
2023/08/19 00:06:39;;;;;;;12.07;9.82;;;589.30;2432.00;;;;;;4956583;29;20535;-82
2023/08/19 00:09:06;;;;;;;11.40;9.27;;;589.40;2432.00;;;;;;4972164;28;20039;-82
2023/08/19 00:11:34;;;;;;;12.07;9.88;;;589.40;2432.00;;;;;;4972617;28;20039;-82
2023/08/19 00:14:00;;;;;;;12.02;9.20;;;589.40;2432.00;;;;;;4972492;28;20028;-82
2023/08/19 00:16:26;;;;;;;14.90;9.65;;;589.40;2432.00;;;;;;4956103;29;20027;-82
2023/08/19 00:18:52;;;;;;;14.45;9.60;;;589.40;2432.00;;;;;;4972968;28;20645;-82
2023/08/19 00:21:18;;;;;;;11.80;9.32;;;589.50;2432.00;;;;;;4956874;29;20122;-82
2023/08/19 00:23:43;;;;;;;15.73;10.13;;;589.20;2432.00;;;;;;4957413;28;20081;-83
2023/08/19 00:26:12;;;;;;;12.77;9.63;;;589.40;2432.00;;;;;;4956189;29;20114;-82
2023/08/19 00:28:39;;;;;;;12.05;9.15;;;589.20;2432.00;;;;;;4957463;28;20479;-82
2023/08/19 00:31:07;;;;;;;11.80;10.43;;;589.20;2432.00;;;;;;4971643;28;20043;-83
2023/08/19 00:33:34;;;;;;;13.18;10.25;;;589.20;2432.00;;;;;;4957493;28;20066;-82
2023/08/19 00:36:00;;;;;;;11.48;9.75;;;589.00;2432.00;;;;;;4956995;28;20375;-83
2023/08/19 00:38:26;;;;;;;11.50;9.60;;;589.10;2432.00;;;;;;4972117;28;20031;-82
2023/08/19 00:40:52;;;;;;;10.88;9.77;;;589.20;2432.00;;;;;;4956025;29;20038;-82
2023/08/19 00:43:18;;;;;;;10.98;9.85;;;589.10;2432.00;;;;;;4955691;29;20031;-83
2023/08/19 00:45:49;;;;;;;12.07;9.85;;;588.90;2432.00;;;;;;4955791;29;20028;-82
2023/08/19 00:48:18;;;;;;;12.17;9.50;;;589.00;2432.00;;;;;;4972370;28;20439;-82
2023/08/19 00:50:44;;;;;;;11.45;9.63;;;588.90;2432.00;;;;;;4971453;28;20304;-82
2023/08/19 00:53:12;;;;;;;11.35;10.20;;;588.90;2432.00;;;;;;4971818;28;20485;-82
2023/08/19 00:55:38;;;;;;;15.60;10.63;;;588.90;2432.00;;;;;;4955757;29;20027;-82
2023/08/19 00:58:04;;;;;;;11.35;10.25;;;588.90;2432.00;;;;;;4956563;28;20038;-82
2023/08/19 01:00:31;;;;;;;11.75;10.55;;;589.00;2432.00;;;;;;4955563;29;20058;-82
2023/08/19 01:02:58;;;;;;;11.82;10.32;;;588.90;2432.00;;;;;;4955629;29;20036;-83
2023/08/19 01:05:34;;;;;;;15.43;10.57;;;588.90;2432.00;;;;;;4955252;29;20027;-82
2023/08/19 01:08:04;;;;;;;15.88;10.48;;;588.80;2432.00;;;;;;4956495;28;20038;-82
2023/08/19 01:10:44;;;;;;;12.80;10.15;;;588.80;2432.00;;;;;;4955970;29;20027;-82
2023/08/19 01:13:15;;;;;;;14.05;10.65;;;588.80;2432.00;;;;;;4955143;29;20408;-83
2023/08/19 01:15:46;;;;;;;11.65;10.40;;;564.10;2432.00;;;;;;4955359;29;20483;-82
2023/08/19 01:18:16;;;;;;;13.77;10.73;;;564.10;2432.00;;;;;;4955042;29;20027;-83
2023/08/19 01:20:42;;;;;;;12.38;9.43;;;564.10;2432.00;;;;;;4954842;28;20368;-82
2023/08/19 01:23:16;;;;;;;13.98;10.13;;;564.10;2432.00;;;;;;4955804;29;20383;-83
2023/08/19 01:25:42;;;;;;;15.18;10.65;;;588.80;2432.00;;;;;;4954779;29;20117;-82
2023/08/19 01:28:08;;;;;;;12.45;9.95;;;588.90;2432.00;;;;;;4955114;29;20394;-82
2023/08/19 01:30:34;;;;;;;15.00;10.88;;;588.80;2432.00;;;;;;4956466;28;20106;-82
2023/08/19 01:33:02;;;;;;;12.20;10.32;;;588.90;2432.00;;;;;;4955687;28;20034;-83
2023/08/19 01:35:36;;;;;;;11.82;9.30;;;588.90;2432.00;;;;;;4956432;28;20073;-82
2023/08/19 01:38:39;;;;;;;12.65;10.63;;;589.00;2432.00;;;;;;4971325;28;20375;-83
2023/08/19 01:41:07;;;;;;;11.45;9.57;;;588.80;2432.00;;;;;;4941814;29;20499;-82
2023/08/19 01:43:33;;;;;;;12.77;9.80;;;588.80;2432.00;;;;;;4971036;28;20031;-83
2023/08/19 01:45:59;;;;;;;10.60;9.07;;;588.80;2432.00;;;;;;4954636;29;20062;-82
2023/08/19 01:48:25;;;;;;;11.13;9.23;;;588.80;2432.00;;;;;;4970773;28;20046;-82
2023/08/19 01:50:50;;;;;;;10.85;9.57;;;564.10;2432.00;;;;;;4954567;29;20051;-82
2023/08/19 01:53:16;;;;;;;13.90;9.60;;;564.10;2432.00;;;;;;4954500;29;20070;-82
2023/08/19 01:55:42;;;;;;;15.40;10.10;;;564.10;2432.00;;;;;;4954768;29;20087;-82
2023/08/19 01:58:08;;;;;;;11.30;9.27;;;564.00;2432.00;;;;;;4954637;29;20035;-82
2023/08/19 02:00:33;;;;;;;14.38;9.95;;;563.80;2432.00;;;;;;4954346;29;20031;-82
2023/08/19 02:03:00;;;;;;;11.35;10.15;;;563.80;2432.00;;;;;;4954731;29;20118;-82
2023/08/19 02:05:26;;;;;;;14.13;9.63;;;563.80;2432.00;;;;;;4954605;29;20054;-82
2023/08/19 02:07:51;;;;;;;14.23;9.82;;;563.70;2432.00;;;;;;4954337;29;20055;-82
2023/08/19 02:10:17;;;;;;;13.30;10.13;;;563.70;2432.00;;;;;;4954590;29;20099;-83
2023/08/19 02:12:43;;;;;;;16.05;9.90;;;563.70;2432.00;;;;;;4955843;28;20027;-82
2023/08/19 02:15:09;;;;;;;13.07;10.13;;;563.70;2432.00;;;;;;4954322;29;20074;-82
2023/08/19 02:17:35;;;;;;;12.20;9.50;;;563.70;2432.00;;;;;;4954732;29;20027;-83
2023/08/19 02:20:00;;;;;;;14.15;9.85;;;563.70;2432.00;;;;;;4954610;29;20086;-83
2023/08/19 02:22:26;;;;;;;13.30;9.63;;;563.60;2432.00;;;;;;4954286;29;20487;-82
2023/08/19 02:24:52;;;;;;;10.80;9.70;;;563.70;2432.00;;;;;;4955738;28;20035;-83
2023/08/19 02:27:18;;;;;;;11.02;9.38;;;563.50;2432.00;;;;;;4954408;29;20028;-82
2023/08/19 02:29:43;;;;;;;14.52;10.48;;;563.50;2432.00;;;;;;4954219;29;20047;-82
2023/08/19 02:32:09;;;;;;;12.00;9.75;;;563.30;2432.00;;;;;;4954474;28;20360;-82
2023/08/19 02:34:35;;;;;;;11.98;9.13;;;;;;;;;;4957574;29;20109;-82
2023/08/19 02:37:02;;;;;;;13.18;9.70;;;;;;;;;;4957833;29;20023;-82
2023/08/19 02:39:28;;;;;;;14.88;10.43;;;;;;;;;;4959701;28;20023;-82
2023/08/19 02:41:54;;;;;;;12.48;10.48;;;563.70;2432.00;;;;;;4958616;29;20490;-82
2023/08/19 02:44:20;;;;;;;16.15;11.90;;;563.60;2432.00;;;;;;4957951;29;20058;-82
2023/08/19 02:46:46;;;;;;;11.95;10.45;;;563.20;2432.00;;;;;;4958075;28;20554;-82
2023/08/19 02:49:12;;;;;;;13.38;10.70;;;563.30;2432.00;;;;;;4959048;28;20035;-82
2023/08/19 02:51:38;;;;;;;13.32;11.45;;;563.40;2432.00;;;;;;4957823;29;20052;-82
2023/08/19 02:54:04;;;;;;;11.45;9.85;;;563.40;2432.00;;;;;;4957960;29;20038;-82
2023/08/19 02:56:30;;;;;;;13.13;10.50;;;563.50;2432.00;;;;;;4973594;28;20122;-82
2023/08/19 02:58:55;;;;;;;13.48;10.20;;;563.60;2432.00;;;;;;4958124;29;20126;-82
2023/08/19 03:01:21;;;;;;;13.65;10.73;;;563.50;2432.00;;;;;;4957885;29;20031;-82
2023/08/19 03:03:47;;;;;;;13.50;10.63;;;563.50;2432.00;;;;;;4957703;29;20027;-82
2023/08/19 03:06:13;;;;;;;12.38;10.00;;;563.50;2432.00;;;;;;4957844;29;20494;-82
2023/08/19 03:08:38;;;;;;;12.35;11.05;;;563.70;2432.00;;;;;;4957713;29;20105;-82
2023/08/19 03:11:04;;;;;;;14.52;10.52;;;563.50;2432.00;;;;;;4958459;28;20106;-82
2023/08/19 03:13:30;;;;;;;11.43;10.32;;;563.50;2432.00;;;;;;4958014;29;20456;-82
2023/08/19 03:16:00;;;;;;;14.23;10.55;;;563.40;2432.00;;;;;;4957616;29;20083;-82
2023/08/19 03:18:26;;;;;;;14.13;10.45;;;563.40;2432.00;;;;;;4957318;29;20042;-82
2023/08/19 03:20:57;;;;;;;14.98;10.77;;;563.20;2432.00;;;;;;4957626;29;20027;-82
2023/08/19 03:23:24;;;;;;;11.20;9.30;;;563.40;2432.00;;;;;;4958722;29;20145;-82
2023/08/19 03:25:50;;;;;;;12.60;10.00;;;563.30;2432.00;;;;;;4978114;28;20027;-82
2023/08/19 03:28:16;;;;;;;11.77;9.52;;;563.20;2432.00;;;;;;4961541;29;20035;-82
2023/08/19 03:30:42;;;;;;;13.43;9.70;;;563.20;2432.00;;;;;;4961754;29;20446;-82
2023/08/19 03:33:07;;;;;;;14.32;9.52;;;563.20;2432.00;;;;;;4958446;29;20030;-82
2023/08/19 03:35:36;;;;;;;12.15;10.80;;;538.50;2406.40;;;;;;4957135;29;20059;-82
2023/08/19 03:38:03;;;;;;;14.27;10.30;;;538.50;2406.40;;;;;;4956785;29;20055;-82
2023/08/19 03:40:29;;;;;;;13.05;9.70;;;538.40;2406.40;;;;;;4957197;29;20031;-82
2023/08/19 03:42:56;;;;;;;11.07;9.82;;;538.50;2406.40;;;;;;4957629;29;20042;-82
2023/08/19 03:45:22;;;;;;;13.73;9.88;;;538.40;2406.40;;;;;;4956538;28;20097;-82
2023/08/19 03:47:47;;;;;;;15.52;10.40;;;538.30;2406.40;;;;;;4956694;29;20467;-82
2023/08/19 03:50:13;;;;;;;14.75;9.93;;;538.30;2406.40;;;;;;4956906;29;20039;-82
2023/08/19 03:52:39;;;;;;;13.90;10.57;;;538.30;2406.40;;;;;;4956515;29;20106;-82
2023/08/19 03:55:06;;;;;;;12.18;10.10;;;538.30;2406.40;;;;;;4957175;29;20376;-82
2023/08/19 03:57:32;;;;;;;16.05;10.95;;;538.20;2406.40;;;;;;4956804;29;20034;-82
2023/08/19 03:59:58;;;;;;;12.82;10.82;;;;;;;;;;4956706;29;20031;-82
2023/08/19 04:02:24;;;;;;;12.43;10.13;;;;;;;;;;4958072;28;20372;-82
2023/08/19 04:04:59;;;;;;;11.68;10.48;;;;;;;;;;4956605;29;20129;-80
2023/08/19 04:07:26;;;;;;;12.68;9.90;;;;;;;;;;4956267;29;20419;-80
2023/08/19 04:09:53;;;;;;;15.35;10.52;;;;;;;;;;4956570;29;20027;-82
2023/08/19 04:12:19;;;;;;;13.02;10.73;;;;;;;;;;4956528;29;20041;-83
2023/08/19 04:14:46;;;;;;;15.45;11.20;;;;;;;;;;4956142;29;20024;-82
2023/08/19 04:17:12;;;;;;;15.55;11.32;;;;;;;;;;4956392;29;20019;-82
2023/08/19 04:19:38;;;;;;;14.13;11.45;;;538.50;2406.40;;;;;;4956278;29;20069;-82
2023/08/19 04:22:04;;;;;;;12.10;10.80;;;538.40;2406.40;;;;;;4956025;29;20058;-82
2023/08/19 04:24:30;;;;;;;13.77;11.60;;;538.50;2406.40;;;;;;4956268;29;20550;-82
2023/08/19 04:26:56;;;;;;;14.43;12.20;;;538.30;2406.40;;;;;;4955677;29;20539;-82
2023/08/19 04:29:21;;;;;;;18.90;11.82;;;538.10;2406.40;;;;;;4956132;29;20039;-82
2023/08/19 04:31:47;;;;;;;21.45;11.68;;;538.20;2406.40;;;;;;4956144;29;20028;-83
2023/08/19 04:34:13;;;;;;;16.42;11.82;;;538.30;2406.40;;;;;;4956255;29;20459;-82
2023/08/19 04:36:39;;;;;;;15.45;10.77;;;538.30;2406.40;;;;;;4956812;29;20042;-82
2023/08/19 04:39:07;;;;;;;16.98;10.80;;;538.30;2406.40;;;;;;4955907;29;20035;-82
2023/08/19 04:41:33;;;;;;;15.10;11.63;;;538.40;2406.40;;;;;;4955545;29;20023;-82
2023/08/19 04:43:59;;;;;;;13.93;10.55;;;538.40;2406.40;;;;;;4956013;29;20027;-82
2023/08/19 04:46:25;;;;;;;15.07;11.52;;;538.20;2406.40;;;;;;4955761;29;20034;-82
2023/08/19 04:48:51;;;;;;;13.15;11.02;;;538.20;2406.40;;;;;;4955545;29;20042;-82
2023/08/19 04:51:17;;;;;;;16.65;11.70;;;538.20;2406.40;;;;;;4955411;29;20051;-82
2023/08/19 04:53:43;;;;;;;14.02;11.10;;;538.10;2406.40;;;;;;4956850;28;20475;-82
2023/08/19 04:56:08;;;;;;;14.32;10.68;;;538.10;2406.40;;;;;;4954671;28;20027;-82
2023/08/19 04:58:35;;;;;;;15.98;11.70;;;538.30;2406.40;;;;;;4955531;29;20110;-82
2023/08/19 05:01:00;;;;;;;19.95;12.32;;;538.20;2406.40;;;;;;4955296;29;20062;-82
2023/08/19 05:03:26;;;;;;;18.05;12.50;;;538.20;2406.40;;;;;;4956446;28;20063;-82
2023/08/19 05:05:52;;;;;;;16.67;12.15;;;538.00;2406.40;;;;;;4955422;29;20023;-82
2023/08/19 05:08:18;;;;;;;12.52;10.98;;;538.10;2406.40;;;;;;4955387;29;20039;-82
2023/08/19 05:10:43;;;;;;;15.02;11.32;;;538.30;2406.40;;;;;;4955073;29;20039;-82
2023/08/19 05:13:09;;;;;;;13.35;11.07;;;538.40;2406.40;;;;;;4955114;29;20388;-82
2023/08/19 05:15:37;;;;;;;14.82;11.80;;;538.40;2406.40;;;;;;4955615;29;20031;-82
2023/08/19 05:18:04;;;;;;;16.88;11.68;;;538.40;2406.40;;;;;;4954921;29;20027;-82
2023/08/19 05:20:30;;;;;;;17.40;11.43;;;538.50;2406.40;;;;;;4955230;29;20083;-82
2023/08/19 05:22:56;;;;;;;12.85;11.07;;;538.50;2406.40;;;;;;4954636;29;20035;-82
2023/08/19 05:25:21;;;;;;;14.63;11.35;;;538.40;2406.40;;;;;;4955281;29;20082;-82
2023/08/19 05:27:47;;;;;;;13.60;11.40;;;538.40;2406.40;;;;;;4955092;29;20027;-82
2023/08/19 05:30:13;;;;;;;16.05;11.35;;;538.30;2406.40;;;;;;4954657;29;20035;-82
2023/08/19 05:32:39;;;;;;;15.00;11.73;;;538.30;2406.40;;;;;;4955059;29;20391;-82
2023/08/19 05:35:05;;;;;;;12.60;10.60;;;538.30;2406.40;;;;;;4955042;29;20027;-82
2023/08/19 05:37:31;;;;;;;14.23;11.15;;;538.50;2406.40;;;;;;4954558;29;20463;-83
2023/08/19 05:39:57;;;;;;;13.02;11.43;;;538.50;2406.40;;;;;;4956183;28;20031;-82
2023/08/19 05:42:23;;;;;;;13.70;11.20;;;538.50;2406.40;;;;;;4955395;29;20035;-82
2023/08/19 05:44:49;;;;;;;15.70;11.48;;;538.50;2406.40;;;;;;4954673;29;20031;-82
2023/08/19 05:47:15;;;;;;;12.90;10.27;;;563.30;2432.00;;;;;;4954825;29;20027;-83
2023/08/19 05:49:41;;;;;;;14.95;11.25;;;563.40;2432.00;;;;;;4956327;28;20487;-82
2023/08/19 05:52:06;;;;;;;12.50;9.77;;;563.40;2432.00;;;;;;4954271;29;20051;-82
2023/08/19 05:54:32;;;;;;;12.95;11.35;;;563.60;2432.00;;;;;;4954744;29;20038;-82
2023/08/19 05:56:58;;;;;;;12.15;10.75;;;563.60;2432.00;;;;;;4954749;29;20031;-82
2023/08/19 05:59:24;;;;;;;16.20;11.23;;;563.70;2432.00;;;;;;4955638;28;20039;-82
2023/08/19 06:01:50;;;;;;;15.52;11.13;;;563.90;2432.00;;;;;;4955075;29;20151;-82
2023/08/19 06:04:15;;;;;;;15.43;10.80;;;563.90;2432.00;;;;;;4954753;29;20031;-82
2023/08/19 06:06:42;;;;;;;19.15;11.50;;;564.00;2432.00;;;;;;4954197;28;20463;-83
2023/08/19 06:09:09;;;;;;;15.20;11.32;;;564.10;2432.00;;;;;;4954631;29;20522;-83
2023/08/19 06:11:45;;;;;;;16.27;11.05;;;588.90;2432.00;;;;;;4955496;29;20034;-83
2023/08/19 06:14:11;;;;;;;12.93;10.13;;;589.00;2432.00;;;;;;4954758;29;20038;-83
2023/08/19 06:16:37;;;;;;;15.48;11.00;;;589.20;2432.00;;;;;;4954513;29;20023;-82
2023/08/19 06:19:03;;;;;;;14.85;10.88;;;589.30;2432.00;;;;;;4954163;29;20035;-83
2023/08/19 06:21:28;;;;;;;19.25;11.13;;;589.50;2432.00;;;;;;4954609;29;20031;-83
2023/08/19 06:23:54;;;;;;;17.48;11.57;;;589.70;2432.00;;;;;;4954542;29;20027;-83
2023/08/19 06:26:20;;;;;;;12.73;10.98;;;589.70;2432.00;;;;;;4954342;29;20058;-82
2023/08/19 06:28:46;;;;;;;16.35;11.20;;;614.40;2432.00;;;;;;4954328;29;20039;-82
2023/08/19 06:31:12;;;;;;;14.23;10.68;;;614.60;2432.00;;;;;;4954550;29;20024;-82
2023/08/19 06:33:38;;;;;;;15.85;10.52;;;614.70;2432.00;;;;;;4954222;29;20079;-81
2023/08/19 06:36:06;;;;;;;16.75;10.55;;;614.80;2432.00;;;;;;4954118;29;20024;-82
2023/08/19 06:38:32;;;;;;;19.45;10.40;;;614.90;2432.00;;;;;;4954506;29;20035;-82
2023/08/19 06:41:11;;;;;;;14.85;11.70;;;615.00;2432.00;;;;;;4954377;29;20082;-82
2023/08/19 06:43:38;;;;;;;12.98;10.90;;;;;;;;;;4954728;29;20042;-83
2023/08/19 06:46:05;;;;;;;17.08;11.57;;;;;;;;;;4954580;29;20348;-82
2023/08/19 06:48:32;;;;;;;12.57;9.63;;;;;;;;;;4953925;29;20082;-82
2023/08/19 06:50:58;;;;;;;12.15;9.82;;;;;;;;;;4954047;29;20055;-82
2023/08/19 06:53:25;;;;;;;15.98;9.80;;;640.10;2432.00;;;;;;4954939;29;20028;-83
2023/08/19 06:55:59;;;;;;;11.73;9.93;;;;;;;;;;4969893;28;20038;-83
2023/08/19 06:58:26;;;;;;;14.52;10.00;;;;;;;;;;4955089;29;20110;-83
2023/08/19 07:00:55;;;;;;;12.27;8.90;;;;;;;;;;4954235;29;20059;-83
2023/08/19 07:03:21;;;;;;;15.85;10.95;;;;;;;;;;4954160;29;20063;-83
2023/08/19 07:05:49;;;;;;;13.63;10.50;;;640.30;2432.00;;;;;;4955424;28;20023;-84
2023/08/19 07:08:17;;;;;;;13.70;11.48;;;640.40;2432.00;;;;;;4953873;29;20042;-84
2023/08/19 07:10:45;;;;;;;14.60;11.07;;;640.20;2432.00;;;;;;4954241;29;20421;-84
2023/08/19 07:13:11;;;;;;;14.10;10.25;;;640.30;2432.00;;;;;;4954923;29;20468;-84
2023/08/19 07:15:39;;;;;;;13.70;9.75;;;640.40;2432.00;;;;;;4955177;28;20027;-83
2023/08/19 07:18:09;;;;;;;11.35;10.02;;;640.50;2432.00;;;;;;4970514;28;20119;-83
2023/08/19 07:20:36;;;;;;;10.88;9.77;;;640.70;2432.00;;;;;;4956876;29;20027;-83
2023/08/19 07:23:03;;;;;;;12.35;9.10;;;640.80;2432.00;;;;;;4973400;28;20037;-83
2023/08/19 07:25:29;;;;;;;12.88;9.15;;;665.60;2432.00;;;;;;4973475;28;20471;-83
2023/08/19 07:27:56;;;;;;;14.07;8.70;;;665.80;2432.00;;;;;;4973583;28;20027;-83
2023/08/19 07:30:22;;;;;;;13.27;7.70;;;665.70;2432.00;;;;;;4973124;28;20039;-83
2023/08/19 07:32:48;;;;;;;9.10;7.68;;;666.00;2432.00;;;;;;4973536;28;20043;-83
2023/08/19 07:35:14;;;;;;;9.48;7.00;;;;;;;;;;4973875;28;20049;-83
2023/08/19 07:37:40;;;;;;;11.45;7.72;;;;;;;;;;4958014;29;20027;-83
2023/08/19 07:40:08;;;;;;;11.25;7.50;;;;;;;;;;4957105;29;20027;-83
2023/08/19 07:42:34;;;;;;;9.40;6.93;;;691.20;2432.00;;;;;;4957052;29;20468;-83
2023/08/19 07:45:00;;;;;;;14.25;7.90;;;666.50;2432.00;;;;;;4956925;29;20031;-83
2023/08/19 07:47:25;;;;;;;9.40;7.57;;;691.20;2432.00;;;;;;4957422;29;20118;-83
2023/08/19 07:49:51;;;;;;;18.08;7.90;;;691.30;2432.00;;;;;;4956913;29;20035;-83
2023/08/19 07:52:17;;;;;;;9.18;7.53;;;691.40;2432.00;;;;;;4956573;29;20058;-83
2023/08/19 07:54:43;;;;;;;13.00;7.55;;;691.30;2432.00;;;;;;4958221;28;20023;-83
2023/08/19 07:57:09;;;;;;;11.73;6.72;;;691.70;2432.00;;;;;;4956680;29;20101;-83
2023/08/19 07:59:35;;;;;;;11.52;6.45;;;691.70;2432.00;;;;;;4956640;29;20562;-83
2023/08/19 08:02:01;;;;;;;8.38;6.60;;;691.70;2432.00;;;;;;4956760;29;20024;-83
2023/08/19 08:04:26;;;;;;;11.82;7.25;;;691.80;2432.00;;;;;;4957841;28;20027;-84
2023/08/19 08:06:52;;;;;;;11.52;7.57;;;691.80;2432.00;;;;;;4956706;29;20365;-84
2023/08/19 08:09:19;;;;;;;10.05;7.20;;;692.10;2432.00;;;;;;4957596;29;20042;-82
2023/08/19 08:11:47;;;;;;;13.38;7.25;;;716.90;2432.00;;;;;;4956401;29;20034;-82
2023/08/19 08:14:13;;;;;;;16.10;7.53;;;717.00;2432.00;;;;;;4957435;29;20475;-83
2023/08/19 08:16:39;;;;;;;8.63;6.13;;;717.10;2432.00;;;;;;4956603;29;20126;-83
2023/08/19 08:19:05;;;;;;;12.23;6.85;;;717.20;2432.00;;;;;;4972343;28;20513;-83
2023/08/19 08:21:31;;;;;;;9.20;5.43;;;717.60;2432.00;;;;;;4957155;29;20057;-86
2023/08/19 08:23:57;;;;;;;10.90;5.10;;;742.50;2432.00;;;;;;4957279;29;20029;-84
2023/08/19 08:26:22;;;;;;;9.65;4.75;;;742.50;2432.00;;;;;;4955688;29;20434;-86
2023/08/19 08:28:49;;;;;;;8.43;4.95;;;742.50;2406.40;;;;;;4956180;29;20046;-82
2023/08/19 08:31:16;;;;;;;6.10;4.30;;;742.90;2278.40;;;;;;4971486;28;20061;-86
2023/08/19 08:33:42;;;;;;;9.30;4.95;;;742.90;2278.40;;;;;;4972141;28;20027;-80
2023/08/19 08:36:08;;;;;;;8.68;4.95;;;743.00;2304.00;;;;;;4972235;28;20034;-85
2023/08/19 08:38:34;;;;;;;8.18;4.88;;;742.90;2304.00;;;;;;4953113;29;20024;-84
2023/08/19 08:41:03;;;;;;;8.95;5.13;;;743.10;2278.40;;;;;;4957246;28;20038;-83
2023/08/19 08:43:34;;;;;;;9.93;5.65;;;743.10;2304.00;;;;;;4977035;28;20039;-83
2023/08/19 08:46:00;;;;;;;10.93;5.43;;;743.30;2304.00;;;;;;4961167;28;20106;-81
2023/08/19 08:48:34;;;;;;;12.93;5.68;;;743.30;2304.00;;;;;;4957685;29;20031;-80
2023/08/19 08:51:02;;;;;;;7.53;5.68;;;743.30;2278.40;;;;;;4958306;29;20207;-81
2023/08/19 08:53:29;;;;;;;8.95;5.47;;;768.00;2252.80;;;;;;4955630;29;20383;-83
2023/08/19 08:55:56;;;;;;;10.85;5.47;;;768.30;2227.20;;;;;;4971568;28;20039;-83
2023/08/19 08:58:22;;;;;;;10.75;5.35;;;768.40;2201.60;;;;;;4972027;28;20039;-83
2023/08/19 09:00:49;;;;;;;6.85;5.40;;;768.60;2176.00;;;;;;4971431;28;20038;-83
2023/08/19 09:03:18;;;;;;;9.45;6.10;;;;;;;;;;4972017;28;20034;-85
2023/08/19 09:05:45;;;;;;;11.05;5.47;;;768.90;2227.20;;;;;;4955624;29;20075;-84
2023/08/19 09:08:15;;;;;;;7.25;5.60;;;768.90;2150.40;;;;;;4971804;28;20156;-83
2023/08/19 09:10:45;;;;;;;6.55;5.35;;;768.90;2150.40;;;;;;4970925;28;20105;-84
2023/08/19 09:13:15;;;;;;;9.80;5.38;;;768.80;2150.40;;;;;;4955818;29;20063;-84
2023/08/19 09:15:41;;;;;;;9.18;6.93;;;793.60;2176.00;;;;;;4955215;29;20037;-83
2023/08/19 09:18:07;;;;;;;9.80;6.53;;;;;;;;;;4955445;29;20118;-83
2023/08/19 09:20:34;;;;;;;7.57;5.25;;;793.90;2176.00;;;;;;4955307;29;20483;-84
2023/08/19 09:23:07;;;;;;;8.73;5.18;;;794.10;2150.40;;;;;;4955008;29;20452;-84
2023/08/19 09:25:33;;;;;;;11.38;5.45;;;793.80;2150.40;;;;;;4954854;29;20032;-83
2023/08/19 09:27:59;;;;;;;9.82;5.95;;;;;;;;;;4954847;29;20039;-84
2023/08/19 09:30:34;;;;;;;9.27;5.90;;;794.20;2124.80;;;;;;4955173;29;20035;-83
2023/08/19 09:33:01;;;;;;;9.63;4.90;;;;;;;;;;4956077;29;20467;-84
2023/08/19 09:35:37;;;;;;;14.20;6.90;;;;;;;;;;4954745;29;20028;-84
2023/08/19 09:38:03;;;;;;;8.05;5.43;;;;;;;;;;4956171;29;20050;-84
2023/08/19 09:40:30;;;;;;;6.65;4.47;;;819.20;2022.40;;;;;;4954783;29;20143;-83
2023/08/19 09:42:59;;;;;;;7.78;4.97;;;794.40;2048.00;;;;;;4954527;28;20023;-84
2023/08/19 09:45:26;;;;;;;11.85;4.55;;;;;;;;;;4955002;29;20024;-84
2023/08/19 09:47:52;;;;;;;7.97;4.15;;;;;;;;;;4954911;29;20023;-84
2023/08/19 09:50:20;;;;;;;10.20;5.45;;;;;;;;;;4954475;29;20075;-83
2023/08/19 09:52:59;;;;;;;8.52;5.45;;;819.30;2048.00;;;;;;4954079;29;20055;-82
2023/08/19 09:55:28;;;;;;;8.02;5.43;;;819.30;2073.60;;;;;;4954539;29;20160;-84
2023/08/19 09:57:54;;;;;;;10.20;5.90;;;819.30;2099.20;;;;;;4954365;29;20030;-82
2023/08/19 10:00:21;;;;;;;8.55;5.43;;;;;;;;;;4954639;29;20085;-83
2023/08/19 10:02:47;;;;;;;9.43;5.15;;;819.80;2048.00;;;;;;4954738;29;20113;-81
2023/08/19 10:05:13;;;;;;;9.88;4.63;;;820.10;1971.20;;;;;;4954085;29;20448;-82
2023/08/19 10:07:43;;;;;;;7.88;4.72;;;820.00;1971.20;;;;;;4955765;28;20039;-80
2023/08/19 10:10:11;;;;;;;9.90;6.45;;;844.90;1920.00;;;;;;4954213;29;20471;-81
2023/08/19 10:12:40;;;;;;;5.32;4.20;;;845.00;1945.60;;;;;;4955527;29;20150;-82
2023/08/19 10:15:12;;;;;;;12.00;8.23;;;845.00;1920.00;;;;;;4954314;29;20094;-81
2023/08/19 10:17:41;;;;;;;13.27;9.02;;;845.20;1945.60;;;;;;4954356;29;20210;-80
2023/08/19 10:20:11;;;;;;;6.25;4.50;;;845.40;1920.00;;;;;;4954866;29;20117;-81
2023/08/19 10:22:44;;;;;;;8.20;7.20;;;845.30;1945.60;;;;;;4955493;28;20035;-81
2023/08/19 10:25:13;;;;;;;13.90;11.50;;;845.40;1945.60;;;;;;4953992;29;20039;-81
2023/08/19 10:27:41;;;;;;;12.73;7.30;;;845.50;1945.60;;;;;;4970257;28;20031;-80
2023/08/19 10:30:36;;;;;;;8.50;6.38;;;845.60;1920.00;;;;;;4955550;28;20063;-80
2023/08/19 10:33:06;;;;;;;13.80;11.48;;;845.60;1894.40;;;;;;4953877;29;20034;-80
2023/08/19 10:36:00;;;;;;;14.00;10.00;;;845.70;1945.60;;;;;;4970249;28;20078;-80
2023/08/19 10:38:42;;;;;;;8.20;5.70;;;870.60;1843.20;;;;;;4955002;28;20035;-80
2023/08/19 10:41:37;;;;;;;;;;;870.70;1817.60;;;;;;4954621;29;20535;-80
2023/08/19 10:44:07;;;;;;;11.40;6.55;;;870.90;1817.60;;;;;;4967205;28;20329;-81
2023/08/19 10:46:40;;;;;;;7.85;5.57;;;871.00;1843.20;;;;;;4953684;29;20038;-80
2023/08/19 10:49:14;;;;;;;6.32;4.53;;;871.10;1843.20;;;;;;4954915;29;20046;-80
2023/08/19 10:52:02;;;;;;;4.75;4.25;;;871.00;1843.20;;;;;;4953721;29;20043;-81
2023/08/19 10:54:35;;;;;;;7.25;6.30;;;870.90;1868.80;;;;;;4955777;28;20050;-80
2023/08/19 10:57:24;;;;;;;7.60;4.10;;;871.10;1843.20;;;;;;4957706;29;20035;-80
2023/08/19 11:00:07;;;;;;;9.13;5.03;;;871.10;1792.00;;;;;;4958450;28;20035;-80
2023/08/19 11:02:33;;;;;;;7.70;4.20;;;871.30;1792.00;;;;;;4958703;29;20367;-80
2023/08/19 11:05:01;;;;;;;7.72;3.80;;;896.00;1766.40;;;;;;4958826;28;20447;-81
2023/08/19 11:07:27;;;;;;;12.15;5.07;;;896.30;1740.80;;;;;;4958498;28;20059;-80
2023/08/19 11:09:56;;;;;;;8.23;4.82;;;896.40;1740.80;;;;;;4957360;29;20063;-81
2023/08/19 11:12:23;;;;;;;5.07;4.32;;;896.50;1740.80;;;;;;4957436;29;20074;-80
2023/08/19 11:14:51;;;;;;;5.55;3.95;;;896.40;1715.20;;;;;;4957257;29;20495;-81
2023/08/19 11:17:26;;;;;;;4.85;3.60;;;896.50;1715.20;;;;;;4957384;29;20463;-83
2023/08/19 11:19:54;;;;;;;8.45;6.40;;;896.40;1689.60;;;;;;4957137;29;20472;-83
2023/08/19 11:22:21;;;;;;;7.53;5.53;;;896.70;1715.20;;;;;;4956648;29;20019;-79
2023/08/19 11:24:47;;;;;;;7.88;5.32;;;896.90;1689.60;;;;;;4956751;28;20487;-80
2023/08/19 11:27:13;;;;;;;6.57;5.10;;;896.90;1689.60;;;;;;4956421;29;20023;-80
2023/08/19 11:29:39;;;;;;;7.47;5.22;;;;;;;;;;4956502;29;20035;-81
2023/08/19 11:32:06;;;;;;;9.57;6.72;;;;;;;;;;4956890;28;20035;-80
2023/08/19 11:34:32;;;;;;;7.88;5.63;;;;;;;;;;4972613;28;20058;-80
2023/08/19 11:36:59;;;;;;;10.25;8.45;;;;;;;;;;4958297;28;20030;-80
2023/08/19 11:39:30;;;;;;;5.45;3.80;;;;;;;;;;4973335;28;20467;-80
2023/08/19 11:41:56;;;;;;;5.25;4.03;;;;;;;;;;4972742;28;20106;-79
2023/08/19 11:44:23;;;;;;;12.93;10.20;;;;;;;;;;4972384;28;20463;-81
2023/08/19 11:46:55;;;;;;;16.73;15.05;;;;;;;;;;4957754;29;20360;-81
2023/08/19 11:49:21;;;;;;;8.60;5.45;;;;;;;;;;4953741;29;20032;-80
2023/08/19 11:51:47;;;;;;;4.70;3.63;;;;;;;;;;4972383;28;20047;-80
2023/08/19 11:54:14;;;;;;;9.73;5.18;;;;;;;;;;4957442;29;20028;-80
2023/08/19 11:57:08;;;;;;;5.53;3.60;;;;;;;;;;4954109;29;20031;-82
2023/08/19 11:59:35;;;;;;;5.28;4.35;;;;;;;;;;4872802;29;20045;-81
2023/08/19 12:02:09;;;;;;;4.65;3.20;;;;;;;;;;4878599;29;20077;-82
2023/08/19 12:04:36;;;;;;;7.03;4.65;;;;;;;;;;4896201;29;20485;-81
2023/08/19 12:07:06;;;;;;;4.68;3.58;;;;;;;;;;4881616;29;20028;-81
2023/08/19 12:09:36;;;;;;;5.25;3.78;;;922.50;1638.40;;;;;;4896776;29;20033;-82
2023/08/19 12:12:11;;;;;;;10.13;8.68;;;947.20;1638.40;;;;;;4881879;29;20025;-82
2023/08/19 12:14:38;;;;;;;10.40;6.22;;;947.20;1612.80;;;;;;4876544;29;20029;-80
2023/08/19 12:17:11;;;;;;;5.80;4.30;;;947.30;1638.40;;;;;;4880919;29;20127;-81
2023/08/19 12:19:37;;;;;;;4.65;3.60;;;947.30;1664.00;;;;;;4881605;29;20481;-81
2023/08/19 12:22:08;;;;;;;4.85;3.80;;;922.50;1664.00;;;;;;4881897;29;20072;-84
2023/08/19 12:24:34;;;;;;;7.68;4.40;;;947.30;1689.60;;;;;;4881524;29;20084;-82
2023/08/19 12:26:59;;;;;;;6.55;4.38;;;947.40;1664.00;;;;;;4881538;29;20044;-81
2023/08/19 12:29:26;;;;;;;6.30;4.15;;;947.60;1689.60;;;;;;4897403;29;20061;-81